createdAt,value
2023-05-07T00:01:59.686Z,43.4
2023-05-07T00:07:00.369Z,43.4
2023-05-07T00:12:00.944Z,43.3
2023-05-07T00:17:01.524Z,43.3
2023-05-07T00:22:02.084Z,43.3
2023-05-07T00:27:02.762Z,43.2
2023-05-07T00:32:03.436Z,43.2
2023-05-07T00:37:06.055Z,43.1
2023-05-07T00:42:07.319Z,43.1
2023-05-07T00:47:07.946Z,43.1
2023-05-07T00:52:08.531Z,43
2023-05-07T00:57:09.122Z,42.9
2023-05-07T01:02:09.771Z,42.9
2023-05-07T01:07:10.376Z,42.9
2023-05-07T01:12:10.943Z,42.9
2023-05-07T01:17:11.569Z,42.8
2023-05-07T01:22:12.422Z,42.7
2023-05-07T01:27:13.018Z,42.7
2023-05-07T01:32:13.564Z,42.7
2023-05-07T01:37:14.224Z,42.6
2023-05-07T01:42:14.789Z,42.6
2023-05-07T01:47:15.381Z,42.6
2023-05-07T01:52:15.950Z,42.5
2023-05-07T01:57:16.549Z,42.5
2023-05-07T02:02:17.184Z,42.4
2023-05-07T02:07:17.798Z,42.4
2023-05-07T02:12:18.383Z,42.4
2023-05-07T02:17:18.928Z,42.3
2023-05-07T02:22:19.446Z,42.3
2023-05-07T02:27:20.112Z,42.2
2023-05-07T02:32:20.765Z,42.2
2023-05-07T02:37:21.352Z,42.2
2023-05-07T02:42:21.882Z,42.1
2023-05-07T02:47:22.526Z,42.1
2023-05-07T02:52:23.123Z,42.1
2023-05-07T02:57:23.661Z,42
2023-05-07T03:02:24.232Z,42
2023-05-07T03:07:24.810Z,41.9
2023-05-07T03:12:25.307Z,41.9
2023-05-07T03:17:25.838Z,41.9
2023-05-07T03:22:26.380Z,41.8
2023-05-07T03:27:26.883Z,41.8
2023-05-07T03:32:27.396Z,41.7
2023-05-07T03:37:27.928Z,41.7
2023-05-07T03:42:28.861Z,41.7
2023-05-07T03:47:29.400Z,41.6
2023-05-07T03:52:29.928Z,41.6
2023-05-07T03:57:30.452Z,41.6
2023-05-07T04:02:31.267Z,41.6
2023-05-07T04:07:32.087Z,41.5
2023-05-07T04:12:32.614Z,41.4
2023-05-07T04:17:33.106Z,41.4
2023-05-07T04:22:33.774Z,41.4
2023-05-07T04:27:34.258Z,41.4
2023-05-07T04:32:34.817Z,41.3
2023-05-07T04:37:35.444Z,41.2
2023-05-07T04:42:36.196Z,41.2
2023-05-07T04:47:36.938Z,41.2
2023-05-07T04:52:37.514Z,41.1
2023-05-07T04:57:38.013Z,41.1
2023-05-07T05:02:38.632Z,41.1
2023-05-07T05:07:40.022Z,41.1
2023-05-07T05:12:40.576Z,41
2023-05-07T05:17:41.251Z,41
2023-05-07T05:22:41.819Z,40.9
2023-05-07T05:27:42.359Z,40.9
2023-05-07T05:32:42.940Z,40.9
2023-05-07T05:37:43.486Z,40.8
2023-05-07T05:42:44.087Z,40.8
2023-05-07T05:47:44.717Z,40.8
2023-05-07T05:52:45.341Z,40.8
2023-05-07T05:57:45.857Z,40.7
2023-05-07T06:02:46.480Z,40.7
2023-05-07T06:07:47.948Z,40.6
2023-05-07T06:12:51.305Z,40.6
2023-05-07T06:17:53.194Z,40.6
2023-05-07T06:22:54.040Z,40.5
2023-05-07T06:27:54.621Z,40.5
2023-05-07T06:32:55.244Z,40.4
2023-05-07T06:37:56.266Z,40.4
2023-05-07T06:42:56.984Z,40.4
2023-05-07T06:47:57.546Z,40.4
2023-05-07T06:52:58.104Z,40.3
2023-05-07T06:57:58.945Z,40.2
2023-05-07T07:02:59.482Z,40.2
2023-05-07T07:07:59.988Z,40.2
2023-05-07T07:13:00.597Z,40.2
2023-05-07T07:18:01.536Z,40.1
2023-05-07T07:23:02.117Z,40.1
2023-05-07T07:28:02.612Z,40.1
2023-05-07T07:33:03.175Z,40
2023-05-07T07:38:03.752Z,40
2023-05-07T07:43:04.287Z,39.9
2023-05-07T07:48:04.760Z,39.9
2023-05-07T07:53:05.351Z,39.9
2023-05-07T07:58:06.790Z,39.8
2023-05-07T08:03:07.870Z,39.8
2023-05-07T08:08:08.669Z,39.7
2023-05-07T08:13:09.391Z,39.7
2023-05-07T08:18:10.014Z,39.6
2023-05-07T08:23:11.620Z,39.4
2023-05-07T08:28:12.157Z,39.3
2023-05-07T08:33:12.824Z,39.3
2023-05-07T08:38:13.465Z,39.2
2023-05-07T08:43:13.997Z,39.2
2023-05-07T08:48:14.470Z,39.2
2023-05-07T08:53:14.985Z,39.2
2023-05-07T08:58:15.437Z,39.1
2023-05-07T09:03:15.960Z,39.1
2023-05-07T09:08:16.528Z,39.1
2023-05-07T09:13:17.198Z,39.1
2023-05-07T09:18:17.730Z,39
2023-05-07T09:23:18.225Z,38.9
2023-05-07T09:28:18.702Z,38.9
2023-05-07T09:33:19.152Z,38.9
2023-05-07T09:38:19.628Z,38.9
2023-05-07T09:43:20.743Z,38.9
2023-05-07T09:48:21.461Z,38.8
2023-05-07T09:53:21.956Z,38.8
2023-05-07T09:58:22.582Z,38.7
2023-05-07T10:03:23.307Z,38.7
2023-05-07T10:08:23.999Z,38.7
2023-05-07T10:13:24.456Z,38.6
2023-05-07T10:18:25.099Z,38.6
2023-05-07T10:23:25.637Z,38.6
2023-05-07T10:28:26.312Z,38.6
2023-05-07T10:33:26.973Z,38.6
2023-05-07T10:38:27.504Z,38.5
2023-05-07T10:43:28.000Z,38.5
2023-05-07T10:48:30.421Z,38.4
2023-05-07T10:53:31.023Z,38.4
2023-05-07T10:58:32.692Z,38.4
2023-05-07T11:03:33.479Z,38.4
2023-05-07T11:08:33.945Z,38.3
2023-05-07T11:13:34.431Z,38.3
2023-05-07T11:18:35.022Z,38.3
2023-05-07T11:23:35.550Z,38.2
2023-05-07T11:28:36.036Z,38.2
2023-05-07T11:33:37.389Z,38.2
2023-05-07T11:43:44.877Z,38.1
2023-05-07T11:48:46.233Z,38.1
2023-05-07T11:53:46.668Z,38.1
2023-05-07T11:58:47.130Z,38.1
2023-05-07T12:03:47.718Z,38
2023-05-07T12:08:48.553Z,38
2023-05-07T12:13:49.108Z,37.9
2023-05-07T12:18:49.556Z,37.9
2023-05-07T12:23:50.776Z,37.9
2023-05-07T12:28:51.223Z,37.9
2023-05-07T12:33:51.747Z,37.9
2023-05-07T12:38:52.132Z,37.8
2023-05-07T12:43:53.449Z,37.8
2023-05-07T12:48:54.314Z,37.8
2023-05-07T12:53:55.824Z,37.7
2023-05-07T12:58:56.222Z,37.7
2023-05-07T13:03:56.726Z,37.7
2023-05-07T13:08:57.257Z,38.7
2023-05-07T13:13:58.657Z,40.9
2023-05-07T13:18:59.246Z,43.3
2023-05-07T13:24:00.036Z,44.7
2023-05-07T13:29:00.688Z,45.9
2023-05-07T13:34:01.423Z,47.1
2023-05-07T13:39:02.152Z,48.2
2023-05-07T13:44:02.959Z,49.4
2023-05-07T13:49:03.734Z,49.5
2023-05-07T13:54:04.572Z,49.5
2023-05-07T13:59:05.439Z,49.5
2023-05-07T14:04:10.121Z,49.4
2023-05-07T14:09:11.499Z,49.4
2023-05-07T14:14:12.342Z,49.4
2023-05-07T14:19:13.232Z,49.4
2023-05-07T14:24:15.812Z,49.3
2023-05-07T14:29:18.153Z,49.3
2023-05-07T14:34:18.949Z,49.2
2023-05-07T14:39:19.971Z,49.2
2023-05-07T14:44:20.780Z,49.2
2023-05-07T14:49:21.981Z,49.1
2023-05-07T14:54:23.215Z,49.1
2023-05-07T14:59:23.996Z,49.1
2023-05-07T15:04:24.787Z,49.1
2023-05-07T15:09:25.544Z,49
2023-05-07T15:14:26.485Z,48.9
2023-05-07T15:19:27.292Z,48.9
2023-05-07T15:24:28.051Z,48.9
2023-05-07T15:29:29.666Z,48.9
2023-05-07T15:34:31.063Z,48.8
2023-05-07T15:39:31.868Z,48.7
2023-05-07T15:44:34.209Z,48.7
2023-05-07T15:49:36.280Z,48.7
2023-05-07T15:54:37.072Z,48.7
2023-05-07T15:59:37.873Z,48.6
2023-05-07T16:04:39.527Z,48.6
2023-05-07T16:09:40.313Z,48.6
2023-05-07T16:14:41.059Z,48.5
2023-05-07T16:19:42.019Z,48.5
2023-05-07T16:24:43.801Z,48.4
2023-05-07T16:29:44.832Z,48.4
2023-05-07T16:34:45.651Z,48.4
2023-05-07T16:39:46.444Z,48.3
2023-05-07T16:44:47.177Z,48.3
2023-05-07T16:49:47.913Z,48.3
2023-05-07T16:54:48.707Z,48.2
2023-05-07T16:59:49.483Z,48.1
2023-05-07T17:04:50.229Z,48.1
2023-05-07T17:09:51.322Z,48.1
2023-05-07T17:14:52.086Z,48.1
2023-05-07T17:19:52.898Z,48
2023-05-07T17:24:53.635Z,47.9
2023-05-07T17:29:54.344Z,47.9
2023-05-07T17:34:55.045Z,47.9
2023-05-07T17:39:56.582Z,47.8
2023-05-07T17:44:57.304Z,47.8
2023-05-07T17:49:58.696Z,47.7
2023-05-07T17:55:00.182Z,47.7
2023-05-07T18:00:00.883Z,47.7
2023-05-07T18:05:01.937Z,47.6
2023-05-07T18:10:02.708Z,47.6
2023-05-07T18:15:04.410Z,46.4
2023-05-07T18:20:05.124Z,46.4
2023-05-07T18:25:06.299Z,47.4
2023-05-07T18:30:07.320Z,47.7
2023-05-07T18:35:08.027Z,47.3
2023-05-07T18:40:08.716Z,47.6
2023-05-07T18:45:09.415Z,47.7
2023-05-07T18:50:10.106Z,47.7
2023-05-07T18:55:10.861Z,47.6
2023-05-07T19:00:11.667Z,47.6
2023-05-07T19:05:12.548Z,47.6
2023-05-07T19:10:13.487Z,47.5
2023-05-07T19:15:14.155Z,47.5
2023-05-07T19:20:14.814Z,47.4
2023-05-07T19:25:18.056Z,47.4
2023-05-07T19:30:19.853Z,47.4
2023-05-07T19:35:20.507Z,47.3
2023-05-07T19:40:22.490Z,47.3
2023-05-07T19:45:23.163Z,47.2
2023-05-07T19:50:24.141Z,47.2
2023-05-07T19:55:24.831Z,47.2
2023-05-07T20:00:25.470Z,47.1
2023-05-07T20:05:26.104Z,47.1
2023-05-07T20:10:26.761Z,47.1
2023-05-07T20:15:27.429Z,47
2023-05-07T20:20:28.120Z,46.9
2023-05-07T20:25:28.820Z,46.9
2023-05-07T20:30:29.516Z,46.9
2023-05-07T20:35:30.202Z,46.8
2023-05-07T20:40:30.869Z,46.8
2023-05-07T20:45:31.596Z,46.7
2023-05-07T20:50:32.284Z,46.7
2023-05-07T20:55:33.030Z,46.7
2023-05-07T21:00:33.717Z,46.6
2023-05-07T21:05:34.384Z,46.6
2023-05-07T21:10:35.138Z,46.6
2023-05-07T21:15:35.860Z,46.5
2023-05-07T21:20:36.703Z,46.4
2023-05-07T21:25:37.350Z,46.4
2023-05-07T21:30:38.033Z,46.4
2023-05-07T21:35:38.814Z,46.3
2023-05-07T21:40:39.479Z,46.2
2023-05-07T21:45:40.221Z,46.2
2023-05-07T21:50:40.963Z,46.2
2023-05-07T21:55:41.670Z,46.1
2023-05-07T22:00:42.350Z,46.1
2023-05-07T22:05:43.124Z,46
2023-05-07T22:10:43.833Z,45.9
2023-05-07T22:15:53.516Z,45.9
2023-05-07T22:20:57.392Z,45.9
2023-05-07T22:25:58.059Z,45.8
2023-05-07T22:30:58.692Z,45.8
2023-05-07T22:35:59.388Z,45.7
2023-05-07T22:41:00.067Z,45.7
2023-05-07T22:46:00.853Z,45.6
2023-05-07T22:51:01.638Z,45.6
2023-05-07T22:56:02.322Z,45.5
2023-05-07T23:01:03.053Z,45.5
2023-05-07T23:06:03.818Z,45.4
2023-05-07T23:11:04.483Z,45.4
2023-05-07T23:16:05.217Z,45.3
2023-05-07T23:21:06.762Z,45.2
2023-05-07T23:26:07.505Z,45.2
2023-05-07T23:31:08.182Z,45.2
2023-05-07T23:36:08.929Z,45.1
2023-05-07T23:41:09.565Z,45.1
2023-05-07T23:46:10.214Z,45
2023-05-07T23:51:11.016Z,45
2023-05-07T23:56:11.641Z,44.9
